Time;durP1;ratioP1;P1;durP2;ratioP2;P2;SDS_P1;SDS_P2;PMS_P1;PMS_P2;Temp;Humidity;BMP_temperature;BMP_pressure;BME280_temperature;BME280_humidity;BME280_pressure;Samples;Min_cycle;Max_cycle;Signal;HPM_P1;HPM_P2
2021/03/05 00:00:24;;;;;;;6.23;4.80;;;7.10;99.90;;;;;;4955390;29;20447;-85
2021/03/05 00:02:51;;;;;;;6.83;4.53;;;7.10;99.90;;;;;;4957191;28;20533;-84
2021/03/05 00:05:17;;;;;;;6.73;4.80;;;7.00;99.90;;;;;;4959163;28;20509;-84
2021/03/05 00:07:43;;;;;;;9.23;5.80;;;7.00;99.90;;;;;;4959315;29;20501;-85
2021/03/05 00:10:12;;;;;;;7.17;4.90;;;7.00;99.90;;;;;;4958689;29;20465;-84
2021/03/05 00:12:39;;;;;;;10.13;5.67;;;7.00;99.90;;;;;;4958976;29;20462;-87
2021/03/05 00:15:09;;;;;;;8.00;5.47;;;7.10;99.90;;;;;;4959454;29;20490;-88
2021/03/05 00:17:35;;;;;;;7.37;5.83;;;7.10;99.90;;;;;;4958395;29;20458;-87
2021/03/05 00:20:02;;;;;;;7.90;4.87;;;7.10;99.90;;;;;;4959233;29;20961;-87
2021/03/05 00:22:28;;;;;;;8.00;5.53;;;7.20;99.90;;;;;;4958801;29;20513;-87
2021/03/05 00:24:54;;;;;;;7.50;4.77;;;7.20;99.90;;;;;;4959083;29;20477;-87
2021/03/05 00:27:21;;;;;;;8.70;5.40;;;7.30;99.90;;;;;;4958756;29;20797;-87
2021/03/05 00:29:47;;;;;;;8.27;6.03;;;7.30;99.90;;;;;;4958533;29;20992;-87
2021/03/05 00:32:14;;;;;;;7.53;5.37;;;7.30;99.90;;;;;;4958419;29;20454;-84
2021/03/05 00:34:40;;;;;;;8.47;5.23;;;7.30;99.90;;;;;;4957777;28;20485;-83
2021/03/05 00:37:06;;;;;;;8.73;5.57;;;7.30;99.90;;;;;;4958023;28;20450;-84
2021/03/05 00:39:32;;;;;;;7.20;5.60;;;7.30;99.90;;;;;;4958143;29;20449;-83
2021/03/05 00:41:59;;;;;;;7.47;5.20;;;7.30;99.90;;;;;;4957891;29;20479;-83
2021/03/05 00:44:25;;;;;;;15.03;9.97;;;7.30;99.90;;;;;;4958292;29;20474;-83
2021/03/05 00:46:51;;;;;;;17.73;11.30;;;7.30;99.90;;;;;;4957128;29;20454;-84
2021/03/05 00:49:18;;;;;;;18.07;11.30;;;7.20;99.90;;;;;;4957896;28;20446;-84
2021/03/05 00:51:44;;;;;;;16.13;9.80;;;7.20;99.90;;;;;;4957941;29;20450;-83
2021/03/05 00:54:11;;;;;;;16.13;9.27;;;7.10;99.90;;;;;;4957754;29;20485;-83
2021/03/05 00:56:37;;;;;;;15.07;9.40;;;6.90;99.90;;;;;;4957608;28;20534;-83
2021/03/05 00:59:03;;;;;;;16.23;9.73;;;6.60;99.90;;;;;;4957545;29;20445;-84
2021/03/05 01:01:30;;;;;;;18.63;11.00;;;6.40;99.90;;;;;;4958094;29;20458;-85
2021/03/05 01:03:56;;;;;;;15.10;9.97;;;6.10;99.90;;;;;;4957702;29;20824;-85
2021/03/05 01:06:23;;;;;;;17.60;10.20;;;6.00;99.90;;;;;;4957942;28;20466;-85
2021/03/05 01:08:50;;;;;;;14.97;9.70;;;5.90;99.90;;;;;;4958140;29;20454;-85
2021/03/05 01:11:16;;;;;;;18.63;10.53;;;5.80;99.90;;;;;;4957991;29;20457;-85
2021/03/05 01:13:43;;;;;;;15.30;8.83;;;5.80;99.90;;;;;;4956443;28;21000;-85
2021/03/05 01:16:09;;;;;;;14.70;9.47;;;5.80;99.90;;;;;;4958028;28;20477;-85
2021/03/05 01:18:36;;;;;;;17.73;10.27;;;5.70;99.90;;;;;;4957317;29;20976;-83
2021/03/05 01:21:03;;;;;;;19.40;11.00;;;5.60;99.90;;;;;;4957626;28;20455;-83
2021/03/05 01:23:31;;;;;;;17.60;11.23;;;5.50;99.90;;;;;;4956962;28;20834;-83
2021/03/05 01:25:58;;;;;;;20.57;11.50;;;5.40;99.90;;;;;;4957179;28;20998;-83
2021/03/05 01:28:24;;;;;;;18.70;10.30;;;5.40;99.90;;;;;;4957621;29;20828;-83
2021/03/05 01:30:50;;;;;;;17.80;9.93;;;5.30;99.90;;;;;;4957559;29;20445;-84
2021/03/05 01:33:16;;;;;;;16.93;9.97;;;5.40;99.90;;;;;;4957026;29;20489;-84
2021/03/05 01:35:43;;;;;;;24.77;11.60;;;5.40;99.90;;;;;;4957572;29;20901;-85
2021/03/05 01:38:10;;;;;;;18.90;9.80;;;5.30;99.90;;;;;;4957157;28;20482;-85
2021/03/05 01:40:39;;;;;;;20.80;12.00;;;5.30;99.90;;;;;;4957181;29;20528;-84
2021/03/05 01:43:07;;;;;;;22.90;11.80;;;5.20;99.90;;;;;;4957546;29;20455;-87
2021/03/05 01:45:33;;;;;;;21.27;11.57;;;5.20;99.90;;;;;;4957090;29;20506;-87
2021/03/05 01:48:03;;;;;;;22.40;11.60;;;5.20;99.90;;;;;;4957944;29;20450;-88
2021/03/05 01:50:34;;;;;;;20.07;11.60;;;5.20;99.90;;;;;;4957439;29;20457;-84
2021/03/05 01:53:03;;;;;;;20.97;11.37;;;5.20;99.90;;;;;;4956978;29;20446;-84
2021/03/05 01:55:29;;;;;;;20.73;11.23;;;5.20;99.90;;;;;;4956547;29;21005;-83
2021/03/05 01:57:57;;;;;;;20.10;10.13;;;5.20;99.90;;;;;;4956537;29;20972;-84
2021/03/05 02:00:29;;;;;;;15.20;9.37;;;5.10;99.90;;;;;;4956826;29;20458;-83
2021/03/05 02:02:55;;;;;;;22.30;11.67;;;5.10;99.90;;;;;;4956781;29;20459;-83
2021/03/05 02:05:23;;;;;;;18.90;10.17;;;5.10;99.90;;;;;;4956402;29;20837;-83
2021/03/05 02:07:50;;;;;;;15.47;8.60;;;5.20;99.90;;;;;;4956662;29;20454;-83
2021/03/05 02:10:16;;;;;;;16.77;9.03;;;5.20;99.90;;;;;;4955875;29;20454;-83
2021/03/05 02:12:42;;;;;;;18.10;9.03;;;5.10;99.90;;;;;;4956834;29;20461;-83
2021/03/05 02:15:11;;;;;;;20.40;10.37;;;5.10;99.90;;;;;;4956571;29;20537;-83
2021/03/05 02:17:45;;;;;;;18.97;9.57;;;5.00;99.90;;;;;;4956714;29;20454;-83
2021/03/05 02:20:20;;;;;;;21.20;11.23;;;5.00;99.90;;;;;;4956420;29;20505;-83
2021/03/05 02:23:31;;;;;;;18.33;9.97;;;5.00;99.90;;;;;;4956635;29;20439;-87
2021/03/05 02:26:55;;;;;;;21.93;11.30;;;4.90;99.90;;;;;;4928244;29;21001;-84
2021/03/05 02:29:45;;;;;;;22.73;10.70;;;4.90;99.90;;;;;;4956341;29;20506;-84
2021/03/05 02:32:19;;;;;;;22.90;12.20;;;5.00;99.90;;;;;;4956040;29;20465;-84
2021/03/05 02:34:48;;;;;;;24.23;11.87;;;5.00;99.90;;;;;;4955968;29;20494;-84
2021/03/05 02:37:16;;;;;;;22.27;11.40;;;5.00;99.90;;;;;;4956204;29;20455;-84
2021/03/05 02:39:45;;;;;;;21.17;10.80;;;5.00;99.90;;;;;;4956095;29;20431;-84
2021/03/05 02:42:19;;;;;;;21.97;11.07;;;5.00;99.90;;;;;;4955630;29;20996;-84
2021/03/05 02:44:50;;;;;;;28.27;13.00;;;5.00;99.90;;;;;;4955960;29;20841;-84
2021/03/05 02:47:21;;;;;;;19.90;11.30;;;4.90;99.90;;;;;;4956234;29;20451;-85
2021/03/05 02:49:52;;;;;;;24.50;12.67;;;4.90;99.90;;;;;;4956155;28;20827;-85
2021/03/05 02:52:20;;;;;;;21.70;11.70;;;4.80;99.90;;;;;;4955209;29;20446;-84
2021/03/05 02:54:52;;;;;;;25.80;12.10;;;4.70;99.90;;;;;;4955419;29;20493;-84
2021/03/05 02:57:20;;;;;;;24.13;12.87;;;4.70;99.90;;;;;;4955818;29;20525;-84
2021/03/05 02:59:47;;;;;;;23.33;12.13;;;4.70;99.90;;;;;;4955952;29;20454;-84
2021/03/05 03:02:15;;;;;;;25.70;12.40;;;4.50;99.90;;;;;;4955419;29;20458;-84
2021/03/05 03:04:44;;;;;;;21.60;12.03;;;4.50;99.90;;;;;;4955873;29;20473;-84
2021/03/05 03:07:13;;;;;;;23.67;13.03;;;4.50;99.90;;;;;;4955382;29;20454;-83
2021/03/05 03:09:41;;;;;;;26.93;12.73;;;4.50;99.90;;;;;;4954851;29;20509;-82
2021/03/05 03:12:09;;;;;;;24.90;12.50;;;4.50;99.90;;;;;;4955605;29;20455;-83
2021/03/05 03:14:37;;;;;;;24.73;13.50;;;4.40;99.90;;;;;;4955339;28;20497;-83
2021/03/05 03:17:05;;;;;;;23.70;12.37;;;4.40;99.90;;;;;;4955504;29;20459;-83
2021/03/05 03:19:33;;;;;;;25.70;13.77;;;4.40;99.90;;;;;;4955239;29;20458;-82
2021/03/05 03:22:02;;;;;;;23.70;12.10;;;4.40;99.90;;;;;;4949753;29;20501;-82
2021/03/05 03:24:30;;;;;;;25.27;12.70;;;4.40;99.90;;;;;;4955121;29;20466;-82
2021/03/05 03:26:56;;;;;;;29.00;12.60;;;4.40;99.90;;;;;;4955336;29;20446;-82
2021/03/05 03:29:23;;;;;;;21.60;11.90;;;4.30;99.90;;;;;;4954890;29;20446;-82
2021/03/05 03:31:49;;;;;;;20.63;11.90;;;4.30;99.90;;;;;;4954961;29;20823;-82
2021/03/05 03:34:16;;;;;;;21.60;11.30;;;4.30;99.90;;;;;;4955011;29;20486;-83
2021/03/05 03:36:43;;;;;;;24.70;12.40;;;4.20;99.90;;;;;;4954688;28;20521;-82
2021/03/05 03:39:11;;;;;;;24.60;11.23;;;4.10;99.90;;;;;;4954589;28;20577;-83
2021/03/05 03:41:39;;;;;;;18.97;10.30;;;4.10;99.90;;;;;;4954675;29;20542;-84
2021/03/05 03:44:07;;;;;;;21.77;11.67;;;4.00;99.90;;;;;;4955118;29;20452;-84
2021/03/05 03:46:37;;;;;;;20.07;11.93;;;4.00;99.90;;;;;;4955323;29;20474;-84
2021/03/05 03:49:07;;;;;;;23.37;11.50;;;3.90;99.90;;;;;;4954242;29;20451;-84
2021/03/05 03:51:40;;;;;;;20.07;10.83;;;3.90;99.90;;;;;;4955601;29;20445;-84
2021/03/05 03:54:08;;;;;;;23.10;11.70;;;3.90;99.90;;;;;;4954903;29;20493;-84
2021/03/05 03:56:38;;;;;;;26.47;11.97;;;3.90;99.90;;;;;;4954760;28;20490;-84
2021/03/05 03:59:05;;;;;;;23.20;11.47;;;3.90;99.90;;;;;;4954773;29;20531;-84
2021/03/05 04:01:32;;;;;;;16.07;9.90;;;4.00;99.90;;;;;;4954924;29;20481;-84
2021/03/05 04:04:00;;;;;;;26.07;13.20;;;3.90;99.90;;;;;;4954622;29;20447;-84
2021/03/05 04:06:27;;;;;;;23.00;11.37;;;3.80;99.90;;;;;;4954907;28;20474;-84
2021/03/05 04:08:54;;;;;;;19.47;11.20;;;3.80;99.90;;;;;;4954341;29;20450;-84
2021/03/05 04:11:22;;;;;;;19.80;11.40;;;3.80;99.90;;;;;;4954783;29;20454;-84
2021/03/05 04:13:50;;;;;;;18.20;10.07;;;3.90;99.90;;;;;;4954421;29;20485;-82
2021/03/05 04:16:16;;;;;;;20.87;11.33;;;3.90;99.90;;;;;;4954745;28;20477;-82
2021/03/05 04:18:42;;;;;;;19.17;11.40;;;3.90;99.90;;;;;;4955224;29;20810;-82
2021/03/05 04:21:13;;;;;;;15.53;9.10;;;3.90;99.90;;;;;;4954791;29;20454;-82
2021/03/05 04:23:40;;;;;;;16.97;10.10;;;3.90;99.90;;;;;;4954169;28;20442;-82
2021/03/05 04:26:06;;;;;;;16.60;9.60;;;3.80;99.90;;;;;;4955275;28;20549;-87
2021/03/05 04:28:32;;;;;;;16.47;8.73;;;3.80;99.90;;;;;;4954863;29;20447;-88
2021/03/05 04:30:59;;;;;;;17.17;8.73;;;3.70;99.90;;;;;;4955019;29;20461;-86
2021/03/05 04:33:26;;;;;;;16.03;9.40;;;3.60;99.90;;;;;;4954738;29;20458;-85
2021/03/05 04:35:52;;;;;;;14.53;8.67;;;3.60;99.90;;;;;;4954383;29;21024;-85
2021/03/05 04:38:19;;;;;;;16.10;8.83;;;3.50;99.90;;;;;;4954235;28;20901;-85
2021/03/05 04:40:45;;;;;;;13.37;8.07;;;3.50;99.90;;;;;;4954824;29;20465;-83
2021/03/05 04:43:11;;;;;;;15.63;8.87;;;3.50;99.90;;;;;;4954399;29;20450;-83
2021/03/05 04:45:37;;;;;;;16.20;9.30;;;3.60;99.90;;;;;;4954156;29;20470;-83
2021/03/05 04:48:06;;;;;;;15.80;8.70;;;3.50;99.90;;;;;;4955440;28;20450;-83
2021/03/05 04:50:32;;;;;;;17.30;9.33;;;3.50;99.90;;;;;;4957827;29;20521;-83
2021/03/05 04:52:58;;;;;;;15.63;8.77;;;3.50;99.90;;;;;;4957869;29;20446;-83
2021/03/05 04:55:25;;;;;;;14.87;9.10;;;3.50;99.90;;;;;;4957604;28;20501;-83
2021/03/05 04:57:51;;;;;;;15.00;8.40;;;3.40;99.90;;;;;;4958034;29;20474;-83
2021/03/05 05:00:17;;;;;;;15.53;8.83;;;3.40;99.90;;;;;;4957897;29;20969;-83
2021/03/05 05:02:44;;;;;;;14.17;8.27;;;3.40;99.90;;;;;;4957552;29;20505;-83
2021/03/05 05:05:13;;;;;;;16.87;9.63;;;3.40;99.90;;;;;;4957623;29;20470;-83
2021/03/05 05:07:39;;;;;;;17.40;9.27;;;3.40;99.90;;;;;;4957665;29;20453;-83
2021/03/05 05:10:07;;;;;;;18.47;9.70;;;3.50;99.90;;;;;;4956946;29;20953;-83
2021/03/05 05:12:33;;;;;;;16.13;9.40;;;3.50;99.90;;;;;;4957296;29;22524;-83
2021/03/05 05:14:59;;;;;;;16.97;9.60;;;3.50;99.90;;;;;;4957767;29;21000;-83
2021/03/05 05:17:25;;;;;;;15.63;8.63;;;3.50;99.90;;;;;;4957437;29;20446;-83
2021/03/05 05:19:53;;;;;;;17.67;10.13;;;3.40;99.90;;;;;;4957562;29;20409;-83
2021/03/05 05:22:21;;;;;;;19.47;10.60;;;3.50;99.90;;;;;;4957531;29;20546;-83
2021/03/05 05:24:47;;;;;;;16.70;9.90;;;3.50;99.90;;;;;;4957517;29;20882;-83
2021/03/05 05:27:13;;;;;;;17.40;10.20;;;3.50;99.90;;;;;;4957007;29;20971;-83
2021/03/05 05:29:40;;;;;;;17.20;8.53;;;3.50;99.90;;;;;;4957147;29;20498;-83
2021/03/05 05:32:06;;;;;;;16.33;8.47;;;3.50;99.90;;;;;;4957092;29;20454;-83
2021/03/05 05:34:32;;;;;;;16.43;9.37;;;3.60;99.90;;;;;;4956867;29;20846;-83
2021/03/05 05:36:59;;;;;;;17.57;9.23;;;3.60;99.90;;;;;;4956493;29;20958;-82
2021/03/05 05:39:26;;;;;;;17.07;8.77;;;3.50;99.90;;;;;;4957077;28;20544;-83
2021/03/05 05:41:55;;;;;;;17.10;9.83;;;3.50;99.90;;;;;;4957036;29;20454;-84
2021/03/05 05:44:21;;;;;;;15.93;8.60;;;3.60;99.90;;;;;;4938268;29;20459;-83
2021/03/05 05:46:48;;;;;;;17.47;8.53;;;3.60;99.90;;;;;;4937915;29;20479;-84
2021/03/05 05:49:18;;;;;;;14.60;8.20;;;3.60;99.90;;;;;;4957506;29;20462;-83
2021/03/05 05:51:47;;;;;;;16.70;9.00;;;3.60;99.90;;;;;;4956695;29;20970;-83
2021/03/05 05:54:21;;;;;;;15.03;7.13;;;3.60;99.90;;;;;;4956440;29;20519;-83
2021/03/05 05:56:48;;;;;;;14.77;8.03;;;3.60;99.90;;;;;;4956543;29;21009;-83
2021/03/05 05:59:14;;;;;;;12.40;7.70;;;3.60;99.90;;;;;;4956088;28;20962;-83
2021/03/05 06:01:41;;;;;;;14.60;8.10;;;3.60;99.90;;;;;;4956591;29;20766;-84
2021/03/05 06:04:08;;;;;;;13.80;7.37;;;3.60;99.90;;;;;;4956959;29;20517;-84
2021/03/05 06:06:38;;;;;;;17.43;8.60;;;3.60;99.90;;;;;;4956980;29;20477;-83
2021/03/05 06:09:05;;;;;;;13.70;7.67;;;3.60;99.90;;;;;;4957113;29;20446;-83
2021/03/05 06:11:33;;;;;;;16.50;8.17;;;3.60;99.90;;;;;;4957067;29;20461;-88
2021/03/05 06:14:04;;;;;;;17.03;8.13;;;3.60;99.90;;;;;;4957008;29;20474;-88
2021/03/05 06:16:30;;;;;;;14.00;7.87;;;3.60;99.90;;;;;;4956980;28;20474;-82
2021/03/05 06:18:58;;;;;;;14.27;8.30;;;3.60;99.90;;;;;;4956442;29;20516;-83
2021/03/05 06:21:38;;;;;;;16.87;7.70;;;3.50;99.90;;;;;;4956591;29;20529;-84
2021/03/05 06:24:07;;;;;;;14.67;7.60;;;3.60;99.90;;;;;;4956172;29;20450;-83
2021/03/05 06:26:51;;;;;;;16.73;8.17;;;3.60;99.90;;;;;;4956271;28;20486;-84
2021/03/05 06:29:20;;;;;;;18.97;9.33;;;3.50;99.90;;;;;;4956426;29;20545;-83
2021/03/05 06:31:55;;;;;;;17.53;8.53;;;3.60;99.90;;;;;;4955720;29;20458;-83
2021/03/05 06:34:22;;;;;;;13.33;7.07;;;3.60;99.90;;;;;;4956046;29;20482;-83
2021/03/05 06:37:02;;;;;;;14.33;8.20;;;3.60;99.90;;;;;;4956188;29;20820;-83
2021/03/05 06:39:30;;;;;;;16.00;7.77;;;3.60;99.90;;;;;;4955955;29;20458;-83
2021/03/05 06:42:01;;;;;;;16.47;8.40;;;3.60;99.90;;;;;;4955992;29;20442;-85
2021/03/05 06:44:28;;;;;;;16.50;7.43;;;3.60;99.90;;;;;;4955729;28;20445;-85
2021/03/05 06:46:54;;;;;;;16.00;8.10;;;3.60;99.90;;;;;;4956175;29;20446;-85
2021/03/05 06:49:21;;;;;;;14.03;8.03;;;3.70;99.90;;;;;;4956215;29;20949;-84
2021/03/05 06:51:52;;;;;;;14.77;8.33;;;3.70;99.90;;;;;;4956166;29;20442;-83
2021/03/05 06:54:19;;;;;;;14.10;8.03;;;3.60;99.90;;;;;;4955365;29;20488;-83
2021/03/05 06:56:50;;;;;;;16.53;8.00;;;3.60;99.90;;;;;;4955464;28;20474;-84
2021/03/05 06:59:18;;;;;;;13.53;6.80;;;3.70;99.90;;;;;;4955723;28;20442;-83
2021/03/05 07:01:50;;;;;;;15.33;8.37;;;3.70;99.90;;;;;;4956015;29;20495;-83
2021/03/05 07:04:18;;;;;;;15.60;7.30;;;3.70;99.90;;;;;;4955394;29;20452;-88
2021/03/05 07:06:45;;;;;;;12.33;7.10;;;3.70;99.90;;;;;;4956099;28;20467;-88
2021/03/05 07:09:25;;;;;;;16.63;7.50;;;3.70;99.90;;;;;;4955673;29;20481;-83
2021/03/05 07:11:53;;;;;;;14.63;6.70;;;3.70;99.90;;;;;;4954976;28;20446;-84
2021/03/05 07:14:24;;;;;;;16.50;8.53;;;3.70;99.90;;;;;;4955481;29;21044;-85
2021/03/05 07:16:51;;;;;;;16.70;7.63;;;3.70;99.90;;;;;;4955304;28;20448;-84
2021/03/05 07:19:19;;;;;;;15.13;7.80;;;3.70;99.90;;;;;;4955659;29;20458;-84
2021/03/05 07:21:47;;;;;;;15.67;7.60;;;3.70;99.90;;;;;;4955457;29;20457;-89
2021/03/05 07:24:16;;;;;;;14.10;7.67;;;3.80;99.90;;;;;;4956423;29;20443;-88
2021/03/05 07:26:44;;;;;;;17.37;8.03;;;3.80;99.90;;;;;;4955708;29;20842;-85
2021/03/05 07:29:15;;;;;;;13.67;7.60;;;3.80;99.90;;;;;;4955422;29;20459;-83
2021/03/05 07:31:43;;;;;;;15.17;7.70;;;3.80;99.90;;;;;;4955114;29;20970;-84
2021/03/05 07:34:16;;;;;;;18.47;9.27;;;3.80;99.90;;;;;;4955298;29;20478;-84
2021/03/05 07:36:47;;;;;;;13.87;7.63;;;3.90;99.90;;;;;;4954720;29;21012;-84
2021/03/05 07:39:20;;;;;;;16.70;8.13;;;3.90;99.90;;;;;;4955045;28;20462;-83
2021/03/05 07:41:49;;;;;;;16.90;8.70;;;3.90;99.90;;;;;;4954463;29;20435;-83
2021/03/05 07:44:16;;;;;;;16.33;7.90;;;3.90;99.90;;;;;;4955381;29;20441;-85
2021/03/05 07:46:43;;;;;;;15.90;8.07;;;3.90;99.90;;;;;;4955525;29;20482;-85
2021/03/05 07:49:10;;;;;;;17.30;7.33;;;3.90;99.90;;;;;;4954796;29;20938;-84
2021/03/05 07:51:38;;;;;;;14.13;7.23;;;3.90;99.90;;;;;;4955512;29;20438;-86
2021/03/05 07:54:05;;;;;;;12.93;7.47;;;4.00;99.90;;;;;;4954927;29;20466;-85
2021/03/05 07:56:49;;;;;;;16.00;8.10;;;3.90;99.90;;;;;;4954950;29;20471;-86
2021/03/05 07:59:45;;;;;;;17.03;8.10;;;3.90;99.90;;;;;;4955429;28;20454;-84
2021/03/05 08:02:12;;;;;;;16.40;8.50;;;3.90;99.90;;;;;;4954996;29;20439;-83
2021/03/05 08:05:05;;;;;;;16.20;7.70;;;3.80;99.90;;;;;;4954923;28;20438;-84
2021/03/05 08:07:33;;;;;;;18.40;8.97;;;3.80;99.90;;;;;;4955872;29;20442;-87
2021/03/05 08:10:00;;;;;;;16.47;7.27;;;3.80;99.90;;;;;;4955437;29;20452;-85
2021/03/05 08:12:36;;;;;;;20.37;8.43;;;3.90;99.90;;;;;;4955029;29;20442;-85
2021/03/05 08:15:24;;;;;;;14.80;7.00;;;3.90;99.90;;;;;;4955179;28;20498;-87
2021/03/05 08:17:52;;;;;;;20.53;8.73;;;3.80;99.90;;;;;;4955240;29;20454;-84
2021/03/05 08:20:52;;;;;;;16.60;7.77;;;3.80;99.90;;;;;;4954571;29;20458;-87
2021/03/05 08:23:18;;;;;;;16.57;8.23;;;3.80;99.90;;;;;;4925324;29;20440;-85
2021/03/05 08:25:53;;;;;;;14.53;8.20;;;3.70;99.90;;;;;;4957804;29;20493;-84
2021/03/05 08:28:46;;;;;;;14.27;8.37;;;3.80;99.90;;;;;;4957995;29;20854;-84
2021/03/05 08:31:38;;;;;;;15.97;8.47;;;3.80;99.90;;;;;;4947261;29;20907;-84
2021/03/05 08:34:23;;;;;;;14.47;7.60;;;3.90;99.90;;;;;;4958458;29;20493;-84
2021/03/05 08:36:51;;;;;;;15.50;8.50;;;3.90;99.90;;;;;;4958212;29;20445;-84
2021/03/05 08:39:29;;;;;;;15.17;7.77;;;4.00;99.90;;;;;;4958262;28;20486;-85
2021/03/05 08:42:32;;;;;;;12.53;7.50;;;4.00;99.90;;;;;;4958242;29;20929;-84
2021/03/05 08:45:24;;;;;;;18.23;8.20;;;4.00;99.90;;;;;;4957865;29;20465;-83
2021/03/05 08:47:51;;;;;;;14.70;7.13;;;3.90;99.90;;;;;;4948772;29;20458;-84
2021/03/05 08:50:19;;;;;;;13.77;6.90;;;4.00;99.90;;;;;;4958080;29;20453;-85
2021/03/05 08:52:48;;;;;;;12.53;6.97;;;4.00;99.90;;;;;;4958412;29;20482;-85
2021/03/05 08:55:16;;;;;;;15.17;8.33;;;4.00;99.90;;;;;;4957918;29;20493;-84
2021/03/05 08:57:44;;;;;;;13.17;7.63;;;4.00;99.90;;;;;;4958267;29;20508;-85
2021/03/05 09:00:14;;;;;;;15.53;7.30;;;4.00;99.90;;;;;;4958430;29;20450;-85
2021/03/05 09:02:42;;;;;;;15.23;7.47;;;4.00;99.90;;;;;;4957977;29;20949;-86
2021/03/05 09:05:09;;;;;;;14.03;6.93;;;4.10;99.90;;;;;;4958311;28;20482;-86
2021/03/05 09:07:53;;;;;;;16.03;8.23;;;4.00;99.90;;;;;;4957907;29;20942;-86
2021/03/05 09:10:21;;;;;;;14.40;7.07;;;4.10;99.90;;;;;;4958380;29;20454;-86
2021/03/05 09:12:54;;;;;;;13.83;6.80;;;4.10;99.90;;;;;;4958452;29;20814;-86
2021/03/05 09:15:20;;;;;;;10.90;5.93;;;4.10;99.90;;;;;;4957953;29;20501;-86
2021/03/05 09:17:46;;;;;;;13.07;6.90;;;4.10;99.90;;;;;;4958186;29;20458;-88
2021/03/05 09:20:13;;;;;;;16.37;6.73;;;4.10;99.90;;;;;;4958885;29;20465;-88
2021/03/05 09:22:40;;;;;;;13.83;6.70;;;4.00;99.90;;;;;;4959038;29;20440;-86
2021/03/05 09:25:10;;;;;;;12.73;6.70;;;4.00;99.90;;;;;;4957955;29;20470;-85
2021/03/05 09:27:37;;;;;;;14.20;7.50;;;4.00;99.90;;;;;;4958214;28;20446;-85
2021/03/05 09:30:15;;;;;;;11.90;6.83;;;3.90;99.90;;;;;;4957513;29;20501;-85
2021/03/05 09:32:48;;;;;;;11.60;6.50;;;4.00;99.90;;;;;;4957466;29;20485;-85
2021/03/05 09:35:14;;;;;;;14.40;5.60;;;4.00;99.90;;;;;;4955979;28;20494;-85
2021/03/05 09:37:41;;;;;;;12.37;6.13;;;4.10;99.90;;;;;;4957651;29;20501;-86
2021/03/05 09:40:10;;;;;;;12.03;6.00;;;4.10;99.90;;;;;;4958121;29;20454;-87
2021/03/05 09:42:44;;;;;;;12.30;5.77;;;4.20;99.90;;;;;;4959352;29;20456;-87
2021/03/05 09:45:11;;;;;;;10.13;5.80;;;4.30;99.90;;;;;;4958949;28;20474;-87
2021/03/05 09:47:48;;;;;;;13.70;6.97;;;4.40;99.90;;;;;;4957474;29;20450;-88
2021/03/05 09:50:22;;;;;;;11.40;6.40;;;4.40;99.90;;;;;;4958031;29;20451;-85
2021/03/05 09:52:49;;;;;;;11.10;6.67;;;4.50;99.90;;;;;;4972029;28;20484;-85
2021/03/05 09:55:30;;;;;;;11.73;6.40;;;4.60;99.90;;;;;;4976626;28;20547;-85
2021/03/05 09:58:10;;;;;;;16.67;8.03;;;4.70;99.90;;;;;;4957697;28;20944;-85
2021/03/05 10:00:37;;;;;;;12.70;6.57;;;4.70;99.90;;;;;;4957769;29;20438;-85
2021/03/05 10:03:05;;;;;;;13.03;6.47;;;4.90;99.90;;;;;;4957277;29;20550;-84
2021/03/05 10:05:33;;;;;;;10.73;6.13;;;4.90;99.90;;;;;;4956678;28;20878;-84
2021/03/05 10:07:59;;;;;;;12.53;6.60;;;5.00;99.90;;;;;;4957058;29;20465;-83
2021/03/05 10:10:26;;;;;;;10.20;5.77;;;5.10;99.90;;;;;;4956993;29;20454;-85
2021/03/05 10:12:54;;;;;;;13.00;6.50;;;5.10;99.90;;;;;;4956321;29;20459;-84
2021/03/05 10:15:21;;;;;;;12.87;5.77;;;5.00;99.90;;;;;;4956698;29;20529;-84
2021/03/05 10:17:47;;;;;;;8.57;5.60;;;5.10;99.90;;;;;;4955939;29;20950;-84
2021/03/05 10:20:14;;;;;;;10.63;5.80;;;5.20;99.90;;;;;;4956794;29;20953;-84
2021/03/05 10:22:41;;;;;;;8.47;5.40;;;5.20;99.90;;;;;;4956397;29;20459;-84
2021/03/05 10:25:11;;;;;;;9.20;5.87;;;5.20;99.90;;;;;;4956293;28;20466;-84
2021/03/05 10:27:41;;;;;;;10.93;5.33;;;5.30;99.90;;;;;;4956001;29;20966;-84
2021/03/05 10:30:10;;;;;;;9.23;5.43;;;5.30;99.90;;;;;;4956104;29;20525;-79
2021/03/05 10:32:39;;;;;;;8.73;5.20;;;5.20;99.90;;;;;;4956456;29;20465;-87
2021/03/05 10:35:09;;;;;;;9.30;5.20;;;5.20;99.90;;;;;;4955918;29;20530;-84
2021/03/05 10:37:37;;;;;;;7.00;4.87;;;5.20;99.90;;;;;;4955607;28;20488;-84
2021/03/05 10:40:05;;;;;;;11.00;5.97;;;5.10;99.90;;;;;;4956072;29;20459;-84
2021/03/05 10:42:31;;;;;;;10.57;5.33;;;5.20;99.90;;;;;;4956321;29;20481;-86
2021/03/05 10:44:58;;;;;;;8.23;5.10;;;5.00;99.90;;;;;;4956795;28;21004;-89
2021/03/05 10:47:26;;;;;;;13.33;6.20;;;4.90;99.90;;;;;;4956672;28;20443;-85
2021/03/05 10:49:52;;;;;;;9.37;5.50;;;4.90;99.90;;;;;;4959624;28;20466;-89
2021/03/05 10:52:22;;;;;;;9.20;5.20;;;4.80;99.90;;;;;;4956782;29;20439;-89
2021/03/05 10:54:49;;;;;;;12.03;6.17;;;4.80;99.90;;;;;;4955663;28;20526;-84
2021/03/05 10:57:16;;;;;;;10.50;5.40;;;4.70;99.90;;;;;;4955788;29;20453;-84
2021/03/05 10:59:43;;;;;;;8.43;5.87;;;4.80;99.90;;;;;;4956035;29;20446;-83
2021/03/05 11:02:09;;;;;;;22.93;11.20;;;4.70;99.90;;;;;;4956257;29;20450;-89
2021/03/05 11:04:36;;;;;;;16.53;7.70;;;4.70;99.90;;;;;;4955568;29;20446;-83
2021/03/05 11:07:04;;;;;;;20.33;11.70;;;4.70;99.90;;;;;;4955962;29;20461;-89
2021/03/05 11:09:30;;;;;;;8.33;5.47;;;4.90;99.90;;;;;;4955988;29;20508;-86
2021/03/05 11:11:57;;;;;;;12.87;6.93;;;5.00;99.90;;;;;;4956311;29;20454;-86
2021/03/05 11:14:24;;;;;;;11.03;6.50;;;5.20;99.90;;;;;;4958427;28;21025;-86
2021/03/05 11:16:50;;;;;;;10.93;6.80;;;5.20;99.90;;;;;;4955589;29;20931;-87
2021/03/05 11:19:18;;;;;;;12.33;5.70;;;5.20;99.90;;;;;;4955931;29;20450;-89
2021/03/05 11:21:45;;;;;;;10.33;6.47;;;5.30;99.90;;;;;;4956475;29;20493;-89
2021/03/05 11:24:11;;;;;;;9.27;5.37;;;5.30;99.90;;;;;;4950856;29;20507;-86
2021/03/05 11:26:38;;;;;;;17.00;8.67;;;5.20;99.90;;;;;;4944940;29;20462;-86
2021/03/05 11:29:05;;;;;;;12.03;8.37;;;5.20;99.90;;;;;;4955266;29;20915;-86
2021/03/05 11:31:31;;;;;;;13.03;6.00;;;5.20;99.90;;;;;;4956042;29;20442;-89
2021/03/05 11:33:58;;;;;;;12.10;5.93;;;5.20;99.90;;;;;;4937093;29;20435;-88
2021/03/05 11:36:24;;;;;;;12.53;6.73;;;5.20;99.90;;;;;;4936693;29;20478;-85
2021/03/05 11:38:53;;;;;;;10.97;6.07;;;5.20;99.90;;;;;;4936176;29;20494;-85
2021/03/05 11:41:20;;;;;;;12.33;5.57;;;5.20;99.90;;;;;;4941588;29;20494;-85
2021/03/05 11:43:49;;;;;;;11.83;6.37;;;5.30;99.90;;;;;;4955188;29;20458;-86
2021/03/05 11:46:16;;;;;;;14.20;5.70;;;5.30;99.90;;;;;;4955427;28;20996;-87
2021/03/05 11:48:42;;;;;;;12.97;6.50;;;5.30;99.90;;;;;;4955907;29;20458;-87
2021/03/05 11:51:09;;;;;;;12.10;6.17;;;5.20;99.90;;;;;;4956007;29;20515;-88
2021/03/05 11:53:35;;;;;;;8.93;5.97;;;5.20;99.90;;;;;;4955925;29;20434;-86
2021/03/05 11:56:03;;;;;;;14.30;6.87;;;5.10;99.90;;;;;;4955966;29;20490;-88
2021/03/05 11:58:29;;;;;;;9.77;6.13;;;5.10;99.90;;;;;;4959523;28;20545;-88
2021/03/05 12:00:55;;;;;;;10.60;6.43;;;5.10;99.90;;;;;;4962061;29;20439;-87
2021/03/05 12:03:22;;;;;;;12.10;6.60;;;5.10;99.90;;;;;;4944786;29;20454;-88
2021/03/05 12:05:49;;;;;;;14.40;7.60;;;5.00;99.90;;;;;;4942909;29;20467;-88
2021/03/05 12:08:15;;;;;;;14.17;7.70;;;5.00;99.90;;;;;;4943190;29;20424;-88
2021/03/05 12:10:42;;;;;;;15.20;8.53;;;5.00;99.90;;;;;;4943300;29;20443;-88
2021/03/05 12:13:11;;;;;;;17.17;8.43;;;5.00;99.90;;;;;;4943171;29;20451;-89
2021/03/05 12:15:37;;;;;;;12.07;7.87;;;5.10;99.90;;;;;;4953391;28;20493;-88
2021/03/05 12:18:04;;;;;;;14.00;7.90;;;5.00;99.90;;;;;;4964208;28;20444;-88
2021/03/05 12:20:30;;;;;;;11.20;6.33;;;5.00;99.90;;;;;;4962326;28;20450;-84
2021/03/05 12:22:56;;;;;;;14.30;7.70;;;5.10;99.90;;;;;;4961232;28;20438;-85
2021/03/05 12:25:23;;;;;;;12.93;7.07;;;4.90;99.90;;;;;;4967382;28;20460;-84
2021/03/05 12:27:49;;;;;;;13.00;7.40;;;4.80;99.90;;;;;;4965007;28;20450;-83
2021/03/05 12:30:17;;;;;;;12.90;7.07;;;4.80;99.90;;;;;;4961006;29;20454;-84
2021/03/05 12:32:44;;;;;;;13.70;6.70;;;4.90;99.90;;;;;;4961449;29;20449;-85
2021/03/05 12:35:13;;;;;;;13.30;7.00;;;4.90;99.90;;;;;;4961159;28;20489;-84
2021/03/05 12:37:39;;;;;;;11.73;6.30;;;4.90;99.90;;;;;;4960918;29;20442;-85
2021/03/05 12:40:07;;;;;;;14.83;8.50;;;4.80;99.90;;;;;;4961380;28;20845;-88
2021/03/05 12:42:34;;;;;;;17.60;8.80;;;4.90;99.90;;;;;;4961633;29;20454;-87
2021/03/05 12:45:00;;;;;;;18.87;10.50;;;4.90;99.90;;;;;;4961957;28;20473;-88
2021/03/05 12:47:27;;;;;;;12.73;7.20;;;4.80;99.90;;;;;;4961315;29;20431;-88
2021/03/05 12:49:53;;;;;;;18.43;7.73;;;4.90;99.90;;;;;;4961977;28;20453;-88
2021/03/05 12:52:20;;;;;;;14.37;7.90;;;4.80;99.90;;;;;;4961764;29;20426;-88
2021/03/05 12:54:46;;;;;;;36.47;18.90;;;4.70;99.90;;;;;;4961839;28;21075;-88